sensor_id;sensor_type;location;lat;lon;timestamp;P1;durP1;ratioP1;P2;durP2;ratioP2
7621;SDS011;3852;52.284;8.032;2022-10-26T00:01:05;17.37;;;13.73;;
7621;SDS011;3852;52.284;8.032;2022-10-26T00:03:36;16.57;;;12.83;;
7621;SDS011;3852;52.284;8.032;2022-10-26T00:06:05;17.90;;;12.73;;
7621;SDS011;3852;52.284;8.032;2022-10-26T00:08:36;15.40;;;12.47;;
7621;SDS011;3852;52.284;8.032;2022-10-26T00:11:03;16.87;;;12.37;;
7621;SDS011;3852;52.284;8.032;2022-10-26T00:13:29;16.17;;;12.73;;
7621;SDS011;3852;52.284;8.032;2022-10-26T00:15:55;17.40;;;12.50;;
7621;SDS011;3852;52.284;8.032;2022-10-26T00:18:21;17.00;;;11.83;;
7621;SDS011;3852;52.284;8.032;2022-10-26T00:20:48;16.17;;;12.47;;
7621;SDS011;3852;52.284;8.032;2022-10-26T00:23:14;14.97;;;11.63;;
7621;SDS011;3852;52.284;8.032;2022-10-26T00:25:40;14.87;;;12.17;;
7621;SDS011;3852;52.284;8.032;2022-10-26T00:28:06;14.37;;;11.30;;
7621;SDS011;3852;52.284;8.032;2022-10-26T00:30:31;16.07;;;12.27;;
7621;SDS011;3852;52.284;8.032;2022-10-26T00:32:57;14.70;;;11.97;;
7621;SDS011;3852;52.284;8.032;2022-10-26T00:35:23;13.73;;;11.53;;
7621;SDS011;3852;52.284;8.032;2022-10-26T00:37:52;14.90;;;11.70;;
7621;SDS011;3852;52.284;8.032;2022-10-26T00:40:20;15.57;;;11.77;;
7621;SDS011;3852;52.284;8.032;2022-10-26T00:42:46;16.23;;;11.30;;
7621;SDS011;3852;52.284;8.032;2022-10-26T00:45:19;13.63;;;11.30;;
7621;SDS011;3852;52.284;8.032;2022-10-26T00:47:55;15.47;;;11.10;;
7621;SDS011;3852;52.284;8.032;2022-10-26T00:50:28;15.10;;;11.53;;
7621;SDS011;3852;52.284;8.032;2022-10-26T00:52:58;14.30;;;11.37;;
7621;SDS011;3852;52.284;8.032;2022-10-26T00:55:29;14.07;;;11.50;;
7621;SDS011;3852;52.284;8.032;2022-10-26T00:57:59;13.30;;;11.80;;
7621;SDS011;3852;52.284;8.032;2022-10-26T01:00:30;14.20;;;11.57;;
7621;SDS011;3852;52.284;8.032;2022-10-26T01:02:56;13.17;;;11.50;;
7621;SDS011;3852;52.284;8.032;2022-10-26T01:05:25;19.10;;;11.37;;
7621;SDS011;3852;52.284;8.032;2022-10-26T01:07:51;13.37;;;11.97;;
7621;SDS011;3852;52.284;8.032;2022-10-26T01:10:19;13.00;;;10.90;;
7621;SDS011;3852;52.284;8.032;2022-10-26T01:12:45;11.33;;;9.87;;
7621;SDS011;3852;52.284;8.032;2022-10-26T01:15:11;17.23;;;11.23;;
7621;SDS011;3852;52.284;8.032;2022-10-26T01:18:24;13.47;;;11.53;;
7621;SDS011;3852;52.284;8.032;2022-10-26T01:23:50;13.93;;;12.23;;
7621;SDS011;3852;52.284;8.032;2022-10-26T01:41:32;14.40;;;11.07;;
7621;SDS011;3852;52.284;8.032;2022-10-26T01:44:04;13.40;;;10.57;;
7621;SDS011;3852;52.284;8.032;2022-10-26T01:46:38;11.83;;;10.63;;
7621;SDS011;3852;52.284;8.032;2022-10-26T01:49:12;15.87;;;11.40;;
7621;SDS011;3852;52.284;8.032;2022-10-26T01:51:46;14.53;;;10.83;;
7621;SDS011;3852;52.284;8.032;2022-10-26T01:54:14;15.23;;;10.87;;
7621;SDS011;3852;52.284;8.032;2022-10-26T01:56:41;12.03;;;10.40;;
7621;SDS011;3852;52.284;8.032;2022-10-26T02:07:39;16.47;;;11.87;;
7621;SDS011;3852;52.284;8.032;2022-10-26T02:18:42;14.67;;;10.50;;
7621;SDS011;3852;52.284;8.032;2022-10-26T02:21:38;12.93;;;10.67;;
7621;SDS011;3852;52.284;8.032;2022-10-26T02:24:09;13.57;;;9.60;;
7621;SDS011;3852;52.284;8.032;2022-10-26T02:26:38;13.47;;;10.77;;
7621;SDS011;3852;52.284;8.032;2022-10-26T02:29:11;11.73;;;10.23;;
7621;SDS011;3852;52.284;8.032;2022-10-26T02:31:41;14.93;;;9.90;;
7621;SDS011;3852;52.284;8.032;2022-10-26T02:34:11;15.47;;;10.10;;
7621;SDS011;3852;52.284;8.032;2022-10-26T02:36:40;13.77;;;10.23;;
7621;SDS011;3852;52.284;8.032;2022-10-26T02:39:09;12.27;;;9.40;;
7621;SDS011;3852;52.284;8.032;2022-10-26T02:41:37;13.83;;;11.40;;
7621;SDS011;3852;52.284;8.032;2022-10-26T02:46:52;14.50;;;10.37;;
7621;SDS011;3852;52.284;8.032;2022-10-26T02:49:19;13.17;;;9.53;;
7621;SDS011;3852;52.284;8.032;2022-10-26T02:51:51;14.37;;;10.43;;
7621;SDS011;3852;52.284;8.032;2022-10-26T02:57:07;12.07;;;9.70;;
7621;SDS011;3852;52.284;8.032;2022-10-26T02:59:42;14.53;;;9.70;;
7621;SDS011;3852;52.284;8.032;2022-10-26T03:02:11;11.57;;;9.63;;
7621;SDS011;3852;52.284;8.032;2022-10-26T03:04:41;11.87;;;8.60;;
7621;SDS011;3852;52.284;8.032;2022-10-26T03:07:06;11.20;;;9.27;;
7621;SDS011;3852;52.284;8.032;2022-10-26T03:09:32;15.73;;;10.10;;
7621;SDS011;3852;52.284;8.032;2022-10-26T03:11:58;12.23;;;8.73;;
7621;SDS011;3852;52.284;8.032;2022-10-26T03:14:24;12.10;;;8.83;;
7621;SDS011;3852;52.284;8.032;2022-10-26T03:16:49;11.13;;;8.23;;
7621;SDS011;3852;52.284;8.032;2022-10-26T03:19:15;12.10;;;8.43;;
7621;SDS011;3852;52.284;8.032;2022-10-26T03:21:41;12.87;;;8.87;;
7621;SDS011;3852;52.284;8.032;2022-10-26T03:24:07;8.80;;;7.87;;
7621;SDS011;3852;52.284;8.032;2022-10-26T03:26:34;10.97;;;8.10;;
7621;SDS011;3852;52.284;8.032;2022-10-26T03:28:59;11.73;;;8.33;;
7621;SDS011;3852;52.284;8.032;2022-10-26T03:31:25;11.50;;;8.27;;
7621;SDS011;3852;52.284;8.032;2022-10-26T03:33:53;10.23;;;8.23;;
7621;SDS011;3852;52.284;8.032;2022-10-26T03:36:19;11.83;;;8.50;;
7621;SDS011;3852;52.284;8.032;2022-10-26T03:38:45;8.93;;;7.73;;
7621;SDS011;3852;52.284;8.032;2022-10-26T03:41:10;11.63;;;8.90;;
7621;SDS011;3852;52.284;8.032;2022-10-26T03:43:36;10.67;;;7.73;;
7621;SDS011;3852;52.284;8.032;2022-10-26T03:46:02;11.13;;;8.40;;
7621;SDS011;3852;52.284;8.032;2022-10-26T03:48:28;11.47;;;8.63;;
7621;SDS011;3852;52.284;8.032;2022-10-26T03:50:56;11.53;;;8.77;;
7621;SDS011;3852;52.284;8.032;2022-10-26T03:53:26;12.37;;;9.07;;
7621;SDS011;3852;52.284;8.032;2022-10-26T03:55:52;10.53;;;8.33;;
7621;SDS011;3852;52.284;8.032;2022-10-26T03:58:17;12.77;;;9.00;;
7621;SDS011;3852;52.284;8.032;2022-10-26T04:00:43;10.67;;;8.70;;
7621;SDS011;3852;52.284;8.032;2022-10-26T04:03:09;13.40;;;8.80;;
7621;SDS011;3852;52.284;8.032;2022-10-26T04:05:38;12.00;;;9.00;;
7621;SDS011;3852;52.284;8.032;2022-10-26T04:08:03;12.37;;;8.67;;
7621;SDS011;3852;52.284;8.032;2022-10-26T04:10:29;10.40;;;9.30;;
7621;SDS011;3852;52.284;8.032;2022-10-26T04:12:56;10.40;;;8.97;;
7621;SDS011;3852;52.284;8.032;2022-10-26T04:15:24;11.90;;;9.27;;
7621;SDS011;3852;52.284;8.032;2022-10-26T04:17:57;10.37;;;8.43;;
7621;SDS011;3852;52.284;8.032;2022-10-26T04:20:24;11.53;;;9.03;;
7621;SDS011;3852;52.284;8.032;2022-10-26T04:22:59;11.67;;;8.43;;
7621;SDS011;3852;52.284;8.032;2022-10-26T04:25:29;11.47;;;9.17;;
7621;SDS011;3852;52.284;8.032;2022-10-26T04:27:57;11.93;;;9.10;;
7621;SDS011;3852;52.284;8.032;2022-10-26T04:30:24;14.47;;;9.30;;
7621;SDS011;3852;52.284;8.032;2022-10-26T04:32:50;12.60;;;9.57;;
7621;SDS011;3852;52.284;8.032;2022-10-26T04:35:16;11.47;;;9.07;;
7621;SDS011;3852;52.284;8.032;2022-10-26T04:37:42;12.43;;;8.80;;
7621;SDS011;3852;52.284;8.032;2022-10-26T04:40:08;11.70;;;9.60;;
7621;SDS011;3852;52.284;8.032;2022-10-26T04:42:41;10.47;;;8.93;;
7621;SDS011;3852;52.284;8.032;2022-10-26T04:45:11;10.23;;;8.87;;
7621;SDS011;3852;52.284;8.032;2022-10-26T04:47:39;13.20;;;10.07;;
7621;SDS011;3852;52.284;8.032;2022-10-26T04:50:06;14.27;;;9.70;;
7621;SDS011;3852;52.284;8.032;2022-10-26T04:52:33;11.57;;;9.23;;
7621;SDS011;3852;52.284;8.032;2022-10-26T04:55:00;9.90;;;8.73;;
7621;SDS011;3852;52.284;8.032;2022-10-26T04:57:29;14.77;;;9.60;;
7621;SDS011;3852;52.284;8.032;2022-10-26T04:59:57;15.37;;;8.90;;
7621;SDS011;3852;52.284;8.032;2022-10-26T05:02:24;16.23;;;9.40;;
7621;SDS011;3852;52.284;8.032;2022-10-26T05:04:50;9.43;;;8.33;;
7621;SDS011;3852;52.284;8.032;2022-10-26T05:07:16;11.67;;;9.10;;
7621;SDS011;3852;52.284;8.032;2022-10-26T05:09:42;10.53;;;8.80;;
7621;SDS011;3852;52.284;8.032;2022-10-26T05:12:08;12.13;;;8.80;;
7621;SDS011;3852;52.284;8.032;2022-10-26T05:14:34;11.00;;;9.03;;
7621;SDS011;3852;52.284;8.032;2022-10-26T05:16:59;12.47;;;10.10;;
7621;SDS011;3852;52.284;8.032;2022-10-26T05:19:25;10.90;;;8.80;;
7621;SDS011;3852;52.284;8.032;2022-10-26T05:21:51;12.33;;;8.97;;
7621;SDS011;3852;52.284;8.032;2022-10-26T05:24:17;12.53;;;9.00;;
7621;SDS011;3852;52.284;8.032;2022-10-26T05:26:44;10.03;;;8.80;;
7621;SDS011;3852;52.284;8.032;2022-10-26T05:29:09;11.47;;;8.53;;
7621;SDS011;3852;52.284;8.032;2022-10-26T05:31:35;13.97;;;8.90;;
7621;SDS011;3852;52.284;8.032;2022-10-26T05:34:01;9.47;;;8.03;;
7621;SDS011;3852;52.284;8.032;2022-10-26T05:36:29;9.73;;;8.67;;
7621;SDS011;3852;52.284;8.032;2022-10-26T05:38:59;12.87;;;8.50;;
7621;SDS011;3852;52.284;8.032;2022-10-26T05:41:25;11.97;;;8.13;;
7621;SDS011;3852;52.284;8.032;2022-10-26T05:43:51;10.50;;;8.27;;
7621;SDS011;3852;52.284;8.032;2022-10-26T05:46:19;9.87;;;8.40;;
7621;SDS011;3852;52.284;8.032;2022-10-26T05:48:45;11.07;;;8.33;;
7621;SDS011;3852;52.284;8.032;2022-10-26T05:51:10;11.27;;;8.03;;
7621;SDS011;3852;52.284;8.032;2022-10-26T05:53:37;10.87;;;8.47;;
7621;SDS011;3852;52.284;8.032;2022-10-26T05:56:07;11.50;;;8.67;;
7621;SDS011;3852;52.284;8.032;2022-10-26T05:58:44;11.87;;;8.93;;
7621;SDS011;3852;52.284;8.032;2022-10-26T06:03:56;11.40;;;8.27;;
7621;SDS011;3852;52.284;8.032;2022-10-26T06:06:46;10.13;;;7.87;;
7621;SDS011;3852;52.284;8.032;2022-10-26T06:09:21;13.83;;;9.20;;
7621;SDS011;3852;52.284;8.032;2022-10-26T06:11:47;13.13;;;8.50;;
7621;SDS011;3852;52.284;8.032;2022-10-26T06:14:13;9.27;;;8.23;;
7621;SDS011;3852;52.284;8.032;2022-10-26T06:19:49;12.30;;;9.40;;
7621;SDS011;3852;52.284;8.032;2022-10-26T06:26:06;14.17;;;8.83;;
7621;SDS011;3852;52.284;8.032;2022-10-26T06:31:22;14.73;;;8.37;;
7621;SDS011;3852;52.284;8.032;2022-10-26T06:33:47;12.60;;;9.07;;
7621;SDS011;3852;52.284;8.032;2022-10-26T06:36:23;13.03;;;9.50;;
7621;SDS011;3852;52.284;8.032;2022-10-26T06:38:57;11.77;;;8.30;;
7621;SDS011;3852;52.284;8.032;2022-10-26T06:41:29;13.43;;;8.90;;
7621;SDS011;3852;52.284;8.032;2022-10-26T06:43:57;12.90;;;9.03;;
7621;SDS011;3852;52.284;8.032;2022-10-26T06:46:33;13.43;;;8.13;;
7621;SDS011;3852;52.284;8.032;2022-10-26T06:52:12;11.17;;;8.77;;
7621;SDS011;3852;52.284;8.032;2022-10-26T06:54:54;11.80;;;8.67;;
7621;SDS011;3852;52.284;8.032;2022-10-26T06:57:21;14.73;;;8.97;;
7621;SDS011;3852;52.284;8.032;2022-10-26T07:02:29;13.20;;;9.17;;
7621;SDS011;3852;52.284;8.032;2022-10-26T07:04:55;15.00;;;9.10;;
7621;SDS011;3852;52.284;8.032;2022-10-26T07:07:22;12.87;;;9.40;;
7621;SDS011;3852;52.284;8.032;2022-10-26T07:09:51;13.90;;;9.43;;
7621;SDS011;3852;52.284;8.032;2022-10-26T07:12:17;13.63;;;9.77;;
7621;SDS011;3852;52.284;8.032;2022-10-26T07:14:43;12.00;;;8.83;;
7621;SDS011;3852;52.284;8.032;2022-10-26T07:17:09;12.20;;;9.20;;
7621;SDS011;3852;52.284;8.032;2022-10-26T07:19:36;12.63;;;8.70;;
7621;SDS011;3852;52.284;8.032;2022-10-26T07:22:01;11.13;;;9.47;;
7621;SDS011;3852;52.284;8.032;2022-10-26T07:24:27;14.67;;;9.37;;
7621;SDS011;3852;52.284;8.032;2022-10-26T07:26:54;11.97;;;9.30;;
7621;SDS011;3852;52.284;8.032;2022-10-26T07:29:22;14.37;;;9.10;;
7621;SDS011;3852;52.284;8.032;2022-10-26T07:31:50;12.77;;;9.53;;
7621;SDS011;3852;52.284;8.032;2022-10-26T07:34:17;15.67;;;10.07;;
7621;SDS011;3852;52.284;8.032;2022-10-26T07:36:43;13.13;;;9.57;;
7621;SDS011;3852;52.284;8.032;2022-10-26T07:39:08;13.97;;;9.70;;
7621;SDS011;3852;52.284;8.032;2022-10-26T07:41:34;12.47;;;9.33;;
7621;SDS011;3852;52.284;8.032;2022-10-26T07:44:00;14.87;;;9.63;;
7621;SDS011;3852;52.284;8.032;2022-10-26T07:46:26;16.03;;;9.93;;
7621;SDS011;3852;52.284;8.032;2022-10-26T07:48:52;10.83;;;9.37;;
7621;SDS011;3852;52.284;8.032;2022-10-26T07:51:18;11.43;;;9.40;;
7621;SDS011;3852;52.284;8.032;2022-10-26T07:53:44;11.93;;;9.40;;
7621;SDS011;3852;52.284;8.032;2022-10-26T07:56:10;13.20;;;8.97;;
7621;SDS011;3852;52.284;8.032;2022-10-26T07:58:36;12.93;;;8.63;;
7621;SDS011;3852;52.284;8.032;2022-10-26T08:01:13;13.07;;;9.70;;
7621;SDS011;3852;52.284;8.032;2022-10-26T08:03:39;11.37;;;8.80;;
7621;SDS011;3852;52.284;8.032;2022-10-26T08:06:06;12.30;;;8.77;;
7621;SDS011;3852;52.284;8.032;2022-10-26T08:08:33;10.70;;;7.87;;
7621;SDS011;3852;52.284;8.032;2022-10-26T08:10:59;9.00;;;7.83;;
7621;SDS011;3852;52.284;8.032;2022-10-26T08:13:25;8.87;;;7.77;;
7621;SDS011;3852;52.284;8.032;2022-10-26T08:15:58;10.17;;;8.80;;
7621;SDS011;3852;52.284;8.032;2022-10-26T08:18:26;14.50;;;9.03;;
7621;SDS011;3852;52.284;8.032;2022-10-26T08:20:52;11.73;;;8.20;;
7621;SDS011;3852;52.284;8.032;2022-10-26T08:23:18;14.47;;;8.17;;
7621;SDS011;3852;52.284;8.032;2022-10-26T08:25:45;12.73;;;8.33;;
7621;SDS011;3852;52.284;8.032;2022-10-26T08:28:11;12.13;;;8.10;;
7621;SDS011;3852;52.284;8.032;2022-10-26T08:30:37;10.57;;;8.30;;
7621;SDS011;3852;52.284;8.032;2022-10-26T08:33:03;8.80;;;7.60;;
7621;SDS011;3852;52.284;8.032;2022-10-26T08:35:31;11.80;;;8.77;;
7621;SDS011;3852;52.284;8.032;2022-10-26T08:37:58;10.60;;;7.97;;
7621;SDS011;3852;52.284;8.032;2022-10-26T08:40:25;14.90;;;9.43;;
7621;SDS011;3852;52.284;8.032;2022-10-26T08:43:09;12.23;;;8.23;;
7621;SDS011;3852;52.284;8.032;2022-10-26T08:45:59;10.07;;;7.87;;
7621;SDS011;3852;52.284;8.032;2022-10-26T08:48:39;12.67;;;8.43;;
7621;SDS011;3852;52.284;8.032;2022-10-26T08:51:22;10.83;;;8.17;;
7621;SDS011;3852;52.284;8.032;2022-10-26T08:54:16;8.90;;;7.73;;
7621;SDS011;3852;52.284;8.032;2022-10-26T08:56:57;12.20;;;8.87;;
7621;SDS011;3852;52.284;8.032;2022-10-26T08:59:30;13.97;;;9.27;;
7621;SDS011;3852;52.284;8.032;2022-10-26T09:02:17;9.63;;;8.37;;
7621;SDS011;3852;52.284;8.032;2022-10-26T09:04:44;12.73;;;9.50;;
7621;SDS011;3852;52.284;8.032;2022-10-26T09:10:21;12.07;;;9.60;;
7621;SDS011;3852;52.284;8.032;2022-10-26T09:19:08;14.17;;;9.47;;
7621;SDS011;3852;52.284;8.032;2022-10-26T09:22:15;11.47;;;8.60;;
7621;SDS011;3852;52.284;8.032;2022-10-26T09:25:17;10.03;;;7.33;;
7621;SDS011;3852;52.284;8.032;2022-10-26T09:27:47;11.03;;;8.33;;
7621;SDS011;3852;52.284;8.032;2022-10-26T09:30:25;8.73;;;7.83;;
7621;SDS011;3852;52.284;8.032;2022-10-26T09:32:56;9.00;;;8.10;;
7621;SDS011;3852;52.284;8.032;2022-10-26T09:35:30;11.13;;;7.03;;
7621;SDS011;3852;52.284;8.032;2022-10-26T09:38:15;9.23;;;7.40;;
7621;SDS011;3852;52.284;8.032;2022-10-26T09:43:46;11.87;;;8.63;;
7621;SDS011;3852;52.284;8.032;2022-10-26T09:46:29;11.53;;;8.03;;
7621;SDS011;3852;52.284;8.032;2022-10-26T09:49:16;10.03;;;6.73;;
7621;SDS011;3852;52.284;8.032;2022-10-26T09:51:45;8.90;;;7.80;;
7621;SDS011;3852;52.284;8.032;2022-10-26T09:54:13;11.40;;;7.50;;
7621;SDS011;3852;52.284;8.032;2022-10-26T09:56:43;7.60;;;6.57;;
7621;SDS011;3852;52.284;8.032;2022-10-26T09:59:12;9.93;;;7.67;;
7621;SDS011;3852;52.284;8.032;2022-10-26T10:01:39;11.53;;;7.47;;
7621;SDS011;3852;52.284;8.032;2022-10-26T10:06:50;9.03;;;7.03;;
7621;SDS011;3852;52.284;8.032;2022-10-26T10:09:37;7.20;;;6.50;;
7621;SDS011;3852;52.284;8.032;2022-10-26T10:12:02;10.00;;;6.53;;
7621;SDS011;3852;52.284;8.032;2022-10-26T10:14:33;16.80;;;6.70;;
7621;SDS011;3852;52.284;8.032;2022-10-26T10:17:04;8.57;;;6.47;;
7621;SDS011;3852;52.284;8.032;2022-10-26T10:19:35;7.67;;;6.33;;
7621;SDS011;3852;52.284;8.032;2022-10-26T10:24:42;7.77;;;6.67;;
7621;SDS011;3852;52.284;8.032;2022-10-26T10:27:19;7.97;;;5.70;;
7621;SDS011;3852;52.284;8.032;2022-10-26T10:29:48;7.93;;;5.20;;
7621;SDS011;3852;52.284;8.032;2022-10-26T10:34:46;7.23;;;2.63;;
7621;SDS011;3852;52.284;8.032;2022-10-26T10:39:55;3.03;;;1.43;;
7621;SDS011;3852;52.284;8.032;2022-10-26T10:42:31;5.23;;;1.40;;
7621;SDS011;3852;52.284;8.032;2022-10-26T10:45:01;4.53;;;1.50;;
7621;SDS011;3852;52.284;8.032;2022-10-26T10:47:30;3.27;;;1.27;;
7621;SDS011;3852;52.284;8.032;2022-10-26T10:50:05;1.40;;;1.30;;
7621;SDS011;3852;52.284;8.032;2022-10-26T10:52:43;1.53;;;1.40;;
7621;SDS011;3852;52.284;8.032;2022-10-26T11:00:58;2.00;;;1.40;;
7621;SDS011;3852;52.284;8.032;2022-10-26T11:06:18;2.20;;;1.50;;
7621;SDS011;3852;52.284;8.032;2022-10-26T11:09:29;3.03;;;1.50;;
7621;SDS011;3852;52.284;8.032;2022-10-26T11:15:00;3.23;;;1.53;;
7621;SDS011;3852;52.284;8.032;2022-10-26T11:17:12;3.63;;;1.97;;
7621;SDS011;3852;52.284;8.032;2022-10-26T11:19:48;1.73;;;1.40;;
7621;SDS011;3852;52.284;8.032;2022-10-26T11:22:29;3.97;;;1.70;;
7621;SDS011;3852;52.284;8.032;2022-10-26T11:25:05;2.23;;;1.50;;
7621;SDS011;3852;52.284;8.032;2022-10-26T11:27:46;1.70;;;1.60;;
7621;SDS011;3852;52.284;8.032;2022-10-26T11:30:21;1.53;;;1.43;;
7621;SDS011;3852;52.284;8.032;2022-10-26T11:35:44;5.33;;;1.90;;
7621;SDS011;3852;52.284;8.032;2022-10-26T11:39:08;3.33;;;1.70;;
7621;SDS011;3852;52.284;8.032;2022-10-26T11:41:33;3.17;;;1.60;;
7621;SDS011;3852;52.284;8.032;2022-10-26T11:44:05;2.23;;;1.63;;
7621;SDS011;3852;52.284;8.032;2022-10-26T11:46:42;2.67;;;1.93;;
7621;SDS011;3852;52.284;8.032;2022-10-26T11:57:29;1.90;;;1.70;;
7621;SDS011;3852;52.284;8.032;2022-10-26T12:00:00;3.17;;;1.87;;
7621;SDS011;3852;52.284;8.032;2022-10-26T12:02:38;3.40;;;2.10;;
7621;SDS011;3852;52.284;8.032;2022-10-26T12:07:51;2.57;;;1.63;;
7621;SDS011;3852;52.284;8.032;2022-10-26T12:10:28;4.93;;;2.10;;
7621;SDS011;3852;52.284;8.032;2022-10-26T12:13:18;2.93;;;2.10;;
7621;SDS011;3852;52.284;8.032;2022-10-26T12:15:58;5.47;;;2.30;;
7621;SDS011;3852;52.284;8.032;2022-10-26T12:18:35;2.43;;;1.97;;
7621;SDS011;3852;52.284;8.032;2022-10-26T12:21:12;3.63;;;2.37;;
7621;SDS011;3852;52.284;8.032;2022-10-26T12:29:32;3.33;;;2.47;;
7621;SDS011;3852;52.284;8.032;2022-10-26T12:32:47;4.60;;;2.70;;
7621;SDS011;3852;52.284;8.032;2022-10-26T12:34:56;3.87;;;1.97;;
7621;SDS011;3852;52.284;8.032;2022-10-26T12:37:32;3.07;;;2.10;;
7621;SDS011;3852;52.284;8.032;2022-10-26T12:42:55;5.57;;;2.20;;
7621;SDS011;3852;52.284;8.032;2022-10-26T12:45:22;2.80;;;2.10;;
7621;SDS011;3852;52.284;8.032;2022-10-26T12:55:30;3.23;;;2.23;;
7621;SDS011;3852;52.284;8.032;2022-10-26T12:58:40;5.23;;;2.60;;
7621;SDS011;3852;52.284;8.032;2022-10-26T13:09:51;3.10;;;2.40;;
7621;SDS011;3852;52.284;8.032;2022-10-26T13:12:25;5.37;;;2.60;;
7621;SDS011;3852;52.284;8.032;2022-10-26T13:14:55;4.47;;;2.73;;
7621;SDS011;3852;52.284;8.032;2022-10-26T13:17:30;3.37;;;2.50;;
7621;SDS011;3852;52.284;8.032;2022-10-26T13:20:00;3.30;;;2.33;;
7621;SDS011;3852;52.284;8.032;2022-10-26T13:22:29;4.23;;;2.13;;
7621;SDS011;3852;52.284;8.032;2022-10-26T13:24:57;3.33;;;2.50;;
7621;SDS011;3852;52.284;8.032;2022-10-26T13:32:36;4.47;;;2.40;;
7621;SDS011;3852;52.284;8.032;2022-10-26T13:35:04;3.70;;;2.20;;
7621;SDS011;3852;52.284;8.032;2022-10-26T13:37:40;3.87;;;2.50;;
7621;SDS011;3852;52.284;8.032;2022-10-26T13:40:11;5.20;;;2.50;;
7621;SDS011;3852;52.284;8.032;2022-10-26T13:42:46;5.43;;;2.20;;
7621;SDS011;3852;52.284;8.032;2022-10-26T13:45:20;2.50;;;2.20;;
7621;SDS011;3852;52.284;8.032;2022-10-26T13:47:59;3.73;;;2.60;;
7621;SDS011;3852;52.284;8.032;2022-10-26T13:50:51;4.97;;;2.40;;
7621;SDS011;3852;52.284;8.032;2022-10-26T13:58:59;2.63;;;1.97;;
7621;SDS011;3852;52.284;8.032;2022-10-26T14:01:29;2.97;;;1.80;;
7621;SDS011;3852;52.284;8.032;2022-10-26T14:03:55;3.80;;;1.87;;
7621;SDS011;3852;52.284;8.032;2022-10-26T14:09:02;2.53;;;2.00;;
7621;SDS011;3852;52.284;8.032;2022-10-26T14:11:50;5.03;;;2.60;;
7621;SDS011;3852;52.284;8.032;2022-10-26T14:14:19;4.27;;;2.30;;
7621;SDS011;3852;52.284;8.032;2022-10-26T14:16:58;3.50;;;2.10;;
7621;SDS011;3852;52.284;8.032;2022-10-26T14:19:28;4.57;;;2.20;;
7621;SDS011;3852;52.284;8.032;2022-10-26T14:21:57;4.53;;;2.30;;
7621;SDS011;3852;52.284;8.032;2022-10-26T14:24:34;5.80;;;2.60;;
7621;SDS011;3852;52.284;8.032;2022-10-26T14:27:13;4.27;;;2.70;;
7621;SDS011;3852;52.284;8.032;2022-10-26T14:29:43;6.10;;;2.63;;
7621;SDS011;3852;52.284;8.032;2022-10-26T14:32:28;5.23;;;2.60;;
7621;SDS011;3852;52.284;8.032;2022-10-26T14:34:57;4.50;;;2.07;;
7621;SDS011;3852;52.284;8.032;2022-10-26T14:40:17;2.83;;;2.57;;
7621;SDS011;3852;52.284;8.032;2022-10-26T14:42:47;3.47;;;2.40;;
7621;SDS011;3852;52.284;8.032;2022-10-26T14:45:22;5.13;;;2.70;;
7621;SDS011;3852;52.284;8.032;2022-10-26T14:47:51;5.47;;;2.57;;
7621;SDS011;3852;52.284;8.032;2022-10-26T14:50:18;4.23;;;2.60;;
7621;SDS011;3852;52.284;8.032;2022-10-26T14:52:51;3.27;;;2.37;;
7621;SDS011;3852;52.284;8.032;2022-10-26T14:55:20;4.70;;;2.50;;
7621;SDS011;3852;52.284;8.032;2022-10-26T14:57:47;5.23;;;2.50;;
7621;SDS011;3852;52.284;8.032;2022-10-26T15:00:22;5.13;;;2.70;;
7621;SDS011;3852;52.284;8.032;2022-10-26T15:02:49;4.40;;;2.40;;
7621;SDS011;3852;52.284;8.032;2022-10-26T15:07:57;4.77;;;2.40;;
7621;SDS011;3852;52.284;8.032;2022-10-26T15:13:19;4.33;;;2.60;;
7621;SDS011;3852;52.284;8.032;2022-10-26T15:15:46;5.70;;;2.47;;
7621;SDS011;3852;52.284;8.032;2022-10-26T15:18:20;6.03;;;2.63;;
7621;SDS011;3852;52.284;8.032;2022-10-26T15:20:48;6.57;;;2.60;;
7621;SDS011;3852;52.284;8.032;2022-10-26T15:23:15;4.13;;;2.60;;
7621;SDS011;3852;52.284;8.032;2022-10-26T15:25:50;7.03;;;2.93;;
7621;SDS011;3852;52.284;8.032;2022-10-26T15:28:30;4.57;;;2.50;;
7621;SDS011;3852;52.284;8.032;2022-10-26T15:33:39;4.83;;;2.60;;
7621;SDS011;3852;52.284;8.032;2022-10-26T15:36:16;3.97;;;2.40;;
7621;SDS011;3852;52.284;8.032;2022-10-26T15:38:47;5.33;;;2.70;;
7621;SDS011;3852;52.284;8.032;2022-10-26T15:43:48;4.10;;;2.60;;
7621;SDS011;3852;52.284;8.032;2022-10-26T15:46:15;3.67;;;2.47;;
7621;SDS011;3852;52.284;8.032;2022-10-26T15:48:41;3.70;;;2.70;;
7621;SDS011;3852;52.284;8.032;2022-10-26T15:51:12;2.77;;;2.53;;
7621;SDS011;3852;52.284;8.032;2022-10-26T15:53:38;4.93;;;3.07;;
7621;SDS011;3852;52.284;8.032;2022-10-26T15:56:04;5.83;;;2.80;;
7621;SDS011;3852;52.284;8.032;2022-10-26T15:58:47;3.10;;;2.77;;
7621;SDS011;3852;52.284;8.032;2022-10-26T16:01:31;6.20;;;2.83;;
7621;SDS011;3852;52.284;8.032;2022-10-26T16:03:57;5.57;;;2.77;;
7621;SDS011;3852;52.284;8.032;2022-10-26T16:06:25;4.70;;;2.63;;
7621;SDS011;3852;52.284;8.032;2022-10-26T16:08:59;5.47;;;2.47;;
7621;SDS011;3852;52.284;8.032;2022-10-26T16:11:29;3.97;;;3.00;;
7621;SDS011;3852;52.284;8.032;2022-10-26T16:13:55;5.30;;;2.70;;
7621;SDS011;3852;52.284;8.032;2022-10-26T16:16:21;3.27;;;2.73;;
7621;SDS011;3852;52.284;8.032;2022-10-26T16:18:50;4.03;;;2.93;;
7621;SDS011;3852;52.284;8.032;2022-10-26T16:21:18;2.97;;;2.67;;
7621;SDS011;3852;52.284;8.032;2022-10-26T16:23:46;7.67;;;2.90;;
7621;SDS011;3852;52.284;8.032;2022-10-26T16:26:13;3.97;;;2.83;;
7621;SDS011;3852;52.284;8.032;2022-10-26T16:28:39;5.13;;;2.70;;
7621;SDS011;3852;52.284;8.032;2022-10-26T16:31:06;3.83;;;2.57;;
7621;SDS011;3852;52.284;8.032;2022-10-26T16:33:35;5.17;;;2.90;;
7621;SDS011;3852;52.284;8.032;2022-10-26T16:36:02;7.60;;;3.10;;
7621;SDS011;3852;52.284;8.032;2022-10-26T16:38:29;4.73;;;3.10;;
7621;SDS011;3852;52.284;8.032;2022-10-26T16:41:09;4.90;;;2.80;;
7621;SDS011;3852;52.284;8.032;2022-10-26T16:43:38;7.33;;;2.77;;
7621;SDS011;3852;52.284;8.032;2022-10-26T16:46:08;8.00;;;2.93;;
7621;SDS011;3852;52.284;8.032;2022-10-26T16:48:40;6.20;;;2.70;;
7621;SDS011;3852;52.284;8.032;2022-10-26T16:51:09;4.33;;;2.70;;
7621;SDS011;3852;52.284;8.032;2022-10-26T16:53:37;5.40;;;2.80;;
7621;SDS011;3852;52.284;8.032;2022-10-26T16:56:07;7.23;;;3.17;;
7621;SDS011;3852;52.284;8.032;2022-10-26T16:58:35;3.53;;;3.10;;
7621;SDS011;3852;52.284;8.032;2022-10-26T17:01:02;4.43;;;3.40;;
7621;SDS011;3852;52.284;8.032;2022-10-26T17:03:29;3.43;;;2.80;;
7621;SDS011;3852;52.284;8.032;2022-10-26T17:05:56;5.00;;;3.10;;
7621;SDS011;3852;52.284;8.032;2022-10-26T17:08:24;3.90;;;3.00;;
7621;SDS011;3852;52.284;8.032;2022-10-26T17:10:51;3.83;;;3.07;;
7621;SDS011;3852;52.284;8.032;2022-10-26T17:13:18;4.77;;;2.50;;
7621;SDS011;3852;52.284;8.032;2022-10-26T17:15:44;4.40;;;3.30;;
7621;SDS011;3852;52.284;8.032;2022-10-26T17:18:10;6.20;;;3.23;;
7621;SDS011;3852;52.284;8.032;2022-10-26T17:20:36;3.53;;;2.90;;
7621;SDS011;3852;52.284;8.032;2022-10-26T17:23:03;5.43;;;3.30;;
7621;SDS011;3852;52.284;8.032;2022-10-26T17:25:32;6.30;;;3.40;;
7621;SDS011;3852;52.284;8.032;2022-10-26T17:28:00;4.97;;;3.47;;
7621;SDS011;3852;52.284;8.032;2022-10-26T17:30:27;3.33;;;3.00;;
7621;SDS011;3852;52.284;8.032;2022-10-26T17:32:53;5.00;;;3.20;;
7621;SDS011;3852;52.284;8.032;2022-10-26T17:35:19;4.50;;;3.40;;
7621;SDS011;3852;52.284;8.032;2022-10-26T17:37:45;4.73;;;3.43;;
7621;SDS011;3852;52.284;8.032;2022-10-26T17:40:11;4.63;;;3.00;;
7621;SDS011;3852;52.284;8.032;2022-10-26T17:42:39;3.57;;;3.27;;
7621;SDS011;3852;52.284;8.032;2022-10-26T17:45:05;4.97;;;2.70;;
7621;SDS011;3852;52.284;8.032;2022-10-26T17:47:31;7.53;;;3.43;;
7621;SDS011;3852;52.284;8.032;2022-10-26T17:49:57;4.10;;;3.00;;
7621;SDS011;3852;52.284;8.032;2022-10-26T17:52:27;3.03;;;2.80;;
7621;SDS011;3852;52.284;8.032;2022-10-26T17:54:53;4.10;;;2.80;;
7621;SDS011;3852;52.284;8.032;2022-10-26T17:57:19;4.20;;;2.80;;
7621;SDS011;3852;52.284;8.032;2022-10-26T17:59:45;4.17;;;3.10;;
7621;SDS011;3852;52.284;8.032;2022-10-26T18:02:12;5.03;;;2.87;;
7621;SDS011;3852;52.284;8.032;2022-10-26T18:04:38;3.63;;;3.33;;